createdAt,value
2023-01-13T00:08:51.564Z,8.06
2023-01-13T00:23:54.027Z,8.03
2023-01-13T00:38:55.789Z,8.09
2023-01-13T00:53:57.429Z,8.14
2023-01-13T01:08:59.019Z,8.14
2023-01-13T01:24:00.633Z,8.23
2023-01-13T01:39:02.277Z,8.28
2023-01-13T01:54:03.832Z,8.27
2023-01-13T02:09:05.450Z,8.36
2023-01-13T02:24:25.773Z,8.41
2023-01-13T02:39:28.172Z,8.39
2023-01-13T02:54:29.686Z,8.36
2023-01-13T03:09:31.106Z,8.32
2023-01-13T03:24:32.541Z,8.35
2023-01-13T03:39:33.983Z,8.27
2023-01-13T03:54:35.356Z,8.09
2023-01-13T04:09:36.742Z,8.19
2023-01-13T04:24:38.164Z,8.23
2023-01-13T04:39:39.576Z,8.20
2023-01-13T04:54:40.977Z,8.18
2023-01-13T05:09:42.383Z,8.15
2023-01-13T05:25:02.698Z,8.19
2023-01-13T05:40:22.577Z,8.33
2023-01-13T05:55:24.041Z,8.41
2023-01-13T06:10:25.519Z,8.49
2023-01-13T06:25:26.930Z,8.46
2023-01-13T06:40:28.339Z,8.46
2023-01-13T06:55:29.805Z,8.53
2023-01-13T07:10:31.191Z,8.42
2023-01-13T07:25:41.726Z,8.33
2023-01-13T07:40:45.752Z,8.38
2023-01-13T07:55:47.126Z,8.36
2023-01-13T08:10:48.526Z,8.47
2023-01-13T08:25:49.915Z,8.53
2023-01-13T08:40:51.484Z,8.01
2023-01-13T08:55:52.934Z,8.15
2023-01-13T09:10:54.441Z,7.38
2023-01-13T09:25:55.869Z,6.78
2023-01-13T09:40:57.330Z,6.07
2023-01-13T09:55:58.719Z,6.24
2023-01-13T10:11:00.279Z,6.56
2023-01-13T10:26:01.729Z,6.69
2023-01-13T10:41:03.132Z,6.54
2023-01-13T10:56:04.588Z,6.78
2023-01-13T11:11:06.025Z,6.52
2023-01-13T11:26:07.525Z,6.62
2023-01-13T11:41:08.944Z,6.39
2023-01-13T11:56:10.364Z,5.97
2023-01-13T12:11:11.827Z,5.91
2023-01-13T12:26:13.215Z,6.09
2023-01-13T12:41:14.602Z,7.32
2023-01-13T12:56:16.012Z,6.12
2023-01-13T13:11:36.249Z,5.56
2023-01-13T13:26:37.830Z,5.33
2023-01-13T13:41:58.020Z,5.30
2023-01-13T13:57:11.393Z,5.23
2023-01-13T14:12:12.739Z,5.48
2023-01-13T14:27:14.086Z,5.35
2023-01-13T14:42:15.508Z,5.05
2023-01-13T14:57:16.904Z,4.93
2023-01-13T15:12:18.304Z,4.96
2023-01-13T15:27:19.763Z,4.88
2023-01-13T15:42:39.854Z,4.61
2023-01-13T15:57:41.201Z,4.33
2023-01-13T16:12:42.576Z,4.37
2023-01-13T16:27:44.022Z,4.35
2023-01-13T16:42:46.625Z,4.50
2023-01-13T16:57:48.071Z,4.32
2023-01-13T17:12:49.489Z,3.97
2023-01-13T17:27:50.953Z,3.87
2023-01-13T17:42:52.510Z,3.94
2023-01-13T17:57:53.905Z,4.31
2023-01-13T18:12:56.194Z,4.62
2023-01-13T18:28:00.782Z,4.65
2023-01-13T18:43:02.263Z,4.60
2023-01-13T18:58:04.430Z,4.77
2023-01-13T19:13:06.086Z,4.85
2023-01-13T19:28:07.459Z,4.83
2023-01-13T19:43:27.722Z,4.94
2023-01-13T19:58:30.000Z,4.89
2023-01-13T20:13:31.439Z,4.54
2023-01-13T20:28:36.951Z,4.15
2023-01-13T20:43:38.377Z,4.06
2023-01-13T20:58:39.863Z,4.12
2023-01-13T21:13:59.982Z,3.93
2023-01-13T21:29:02.447Z,3.97
2023-01-13T21:44:22.390Z,4.08
2023-01-13T21:59:23.772Z,4.15
2023-01-13T22:14:25.369Z,4.03
2023-01-13T22:29:26.841Z,3.98
2023-01-13T22:44:28.280Z,3.98
2023-01-13T22:59:31.502Z,4.10
2023-01-13T23:14:32.859Z,4.18
2023-01-13T23:29:34.290Z,3.95
2023-01-13T23:44:35.650Z,3.87
2023-01-13T23:59:37.085Z,3.88
